sensor_id;sensor_type;location;lat;lon;timestamp;pressure;altitude;pressure_sealevel;temperature;humidity
55014;BME280;40916;51.632;5.552;2022-09-01T00:00:26;1016.9564530077955;;;16.20511891701645;0
55014;BME280;40916;51.632;5.552;2022-09-01T00:01:27;1016.9042971493493;;;16.20511891701645;0
55014;BME280;40916;51.632;5.552;2022-09-01T00:02:26;1016.9041496851852;;;16.192136352120734;0
55014;BME280;40916;51.632;5.552;2022-09-01T00:03:26;1016.9077217872583;;;16.1791524508631;0
55014;BME280;40916;51.632;5.552;2022-09-01T00:04:26;1016.914931490129;;;16.15967409160542;0
55014;BME280;40916;51.632;5.552;2022-09-01T00:05:26;1016.9374443206847;;;16.172659998856805;0
55014;BME280;40916;51.632;5.552;2022-09-01T00:06:27;1016.9597144022209;;;16.166167212469848;0
55014;BME280;40916;51.632;5.552;2022-09-01T00:07:27;1016.8661678168556;;;16.133698261435597;0
55014;BME280;40916;51.632;5.552;2022-09-01T00:08:27;1016.8960535914404;;;16.140192721178707;0
55014;BME280;40916;51.632;5.552;2022-09-01T00:09:27;1016.8586302050825;;;16.12720346673043;0
55014;BME280;40916;51.632;5.552;2022-09-01T00:10:27;1016.9366685065828;;;16.11421287204576;0
55014;BME280;40916;51.632;5.552;2022-09-01T00:11:27;1016.8507202974749;;;16.09472446537633;0
55014;BME280;40916;51.632;5.552;2022-09-01T00:12:27;1016.8691483784926;;;16.08173051670133;0
55014;BME280;40916;51.632;5.552;2022-09-01T00:13:27;1016.9360876758192;;;16.07523303880345;0
55014;BME280;40916;51.632;5.552;2022-09-01T00:14:29;1016.9247099364989;;;16.062237075400272;0
55014;BME280;40916;51.632;5.552;2022-09-01T00:15:27;1016.8686372091231;;;16.04923976787123;0
55014;BME280;40916;51.632;5.552;2022-09-01T00:16:28;1016.8307385694994;;;16.010239772728923;0
55014;BME280;40916;51.632;5.552;2022-09-01T00:17:28;1016.9614136677583;;;16.02974128463592;0
55014;BME280;40916;51.632;5.552;2022-09-01T00:18:28;1016.8828724360114;;;16.010239772728923;0
55014;BME280;40916;51.632;5.552;2022-09-01T00:19:28;1016.871469384678;;;15.997237080893402;0
55014;BME280;40916;51.632;5.552;2022-09-01T00:20:28;1016.9273255501258;;;15.997237080893402;0
55014;BME280;40916;51.632;5.552;2022-09-01T00:21:31;1016.8935740359533;;;15.984233041027483;0
55014;BME280;40916;51.632;5.552;2022-09-01T00:22:28;1016.8299074835792;;;15.964724451959249;0
55014;BME280;40916;51.632;5.552;2022-09-01T00:23:28;1016.8819110817798;;;15.958220914072971;0
55014;BME280;40916;51.632;5.552;2022-09-01T00:24:28;1016.8145082446285;;;15.9387082744514;0
55014;BME280;40916;51.632;5.552;2022-09-01T00:25:28;1016.8852504074883;;;15.9387082744514;0
55014;BME280;40916;51.632;5.552;2022-09-01T00:26:28;1016.798952568175;;;15.906180449318828;0
55014;BME280;40916;51.632;5.552;2022-09-01T00:27:28;1016.8287366384867;;;15.906180449318828;0
55014;BME280;40916;51.632;5.552;2022-09-01T00:28:29;1016.8024004724347;;;15.893166951289967;0
55014;BME280;40916;51.632;5.552;2022-09-01T00:29:29;1016.8393476682522;;;15.880152098951942;0
55014;BME280;40916;51.632;5.552;2022-09-01T00:30:29;1016.8423406539583;;;15.84760903783424;0
55014;BME280;40916;51.632;5.552;2022-09-01T00:31:29;1016.9017502060301;;;15.841099408203952;0
55014;BME280;40916;51.632;5.552;2022-09-01T00:32:29;1016.9011316277737;;;15.815057495037415;0
55014;BME280;40916;51.632;5.552;2022-09-01T00:33:29;1016.8894863430502;;;15.795522493018126;0
55014;BME280;40916;51.632;5.552;2022-09-01T00:34:29;1016.8443314829603;;;15.775984430479;0
55014;BME280;40916;51.632;5.552;2022-09-01T00:35:29;1016.8959344808505;;;15.756443304745897;0
55014;BME280;40916;51.632;5.552;2022-09-01T00:36:29;1016.9216429229887;;;15.743414184494096;0
55014;BME280;40916;51.632;5.552;2022-09-01T00:37:29;1016.9099512454811;;;15.723867947486728;0
55014;BME280;40916;51.632;5.552;2022-09-01T00:38:30;1016.8645730934994;;;15.697801521594666;0
55014;BME280;40916;51.632;5.552;2022-09-01T00:39:30;1016.9125806719552;;;15.684766259765688;0
55014;BME280;40916;51.632;5.552;2022-09-01T00:40:30;1016.8301516873266;;;15.665210803677727;0
55014;BME280;40916;51.632;5.552;2022-09-01T00:41:31;1016.8477904639886;;;15.632611534630652;0
55014;BME280;40916;51.632;5.552;2022-09-01T00:42:30;1016.9141650328481;;;15.613047863468573;0
55014;BME280;40916;51.632;5.552;2022-09-01T00:43:35;1016.8912291215564;;;15.59348110670647;0
55014;BME280;40916;51.632;5.552;2022-09-01T00:44:30;1016.8866727176894;;;15.567387293195083;0
55014;BME280;40916;51.632;5.552;2022-09-01T00:45:30;1016.8899663118841;;;15.55433832556545;0
55014;BME280;40916;51.632;5.552;2022-09-01T00:46:31;1016.8370160823051;;;15.528236264543132;0
55014;BME280;40916;51.632;5.552;2022-09-01T00:47:30;1016.8582172584955;;;15.4956009441661;0
55014;BME280;40916;51.632;5.552;2022-09-01T00:48:31;1016.861248322386;;;15.476015616921831;0
55014;BME280;40916;51.632;5.552;2022-09-01T00:49:31;1016.8533431244367;;;15.462957007488122;0
55014;BME280;40916;51.632;5.552;2022-09-01T00:50:31;1016.8191595750991;;;15.44336650441268;0
55014;BME280;40916;51.632;5.552;2022-09-01T00:51:32;1016.7924041258631;;;15.423772892202507;0
55014;BME280;40916;51.632;5.552;2022-09-01T00:52:33;1016.7993546392719;;;15.410708755416845;0
55014;BME280;40916;51.632;5.552;2022-09-01T00:53:31;1016.8325793290458;;;15.404176168126675;0
55014;BME280;40916;51.632;5.552;2022-09-01T00:54:32;1016.7675970076994;;;15.358438361552256;0
55014;BME280;40916;51.632;5.552;2022-09-01T00:55:32;1016.740530798687;;;15.332294845223078;0
55014;BME280;40916;51.632;5.552;2022-09-01T00:56:33;1016.7625781948137;;;15.325758098436161;0
55014;BME280;40916;51.632;5.552;2022-09-01T00:57:31;1016.8627075356941;;;15.319221004363893;0
55014;BME280;40916;51.632;5.552;2022-09-01T00:58:32;1016.7495430860187;;;15.279991141233332;0
55014;BME280;40916;51.632;5.552;2022-09-01T00:59:31;1016.8159144148924;;;15.266911737286577;0
55014;BME280;40916;51.632;5.552;2022-09-01T01:00:32;1016.7584599196753;;;15.227665165299378;0
55014;BME280;40916;51.632;5.552;2022-09-01T01:01:32;1016.791053544099;;;15.20803717165986;0
55014;BME280;40916;51.632;5.552;2022-09-01T01:02:32;1016.8242185823926;;;15.201493809001612;0
55014;BME280;40916;51.632;5.552;2022-09-01T01:03:32;1016.8078709906899;;;15.168771755257115;0
55014;BME280;40916;51.632;5.552;2022-09-01T01:04:32;1016.7691882038054;;;15.136040958009769;0
55014;BME280;40916;51.632;5.552;2022-09-01T01:05:33;1016.7828187265516;;;15.109850016250409;0
55014;BME280;40916;51.632;5.552;2022-09-01T01:06:32;1016.7632936389513;;;15.090203128293101;0
55014;BME280;40916;51.632;5.552;2022-09-01T01:07:32;1016.7836667826546;;;15.05089987323505;0
55014;BME280;40916;51.632;5.552;2022-09-01T01:08:33;1016.8093532706669;;;15.044348100741825;0
55014;BME280;40916;51.632;5.552;2022-09-01T01:09:33;1016.7526265264713;;;15.024690672649363;0
55014;BME280;40916;51.632;5.552;2022-09-01T01:10:33;1016.7327133389489;;;14.99847583989446;0
55014;BME280;40916;51.632;5.552;2022-09-01T01:11:33;1016.7654781351034;;;14.98536630937933;0
55014;BME280;40916;51.632;5.552;2022-09-01T01:12:33;1016.7316977463944;;;14.978811015223961;0
55014;BME280;40916;51.632;5.552;2022-09-01T01:13:40;1016.7191770910392;;;14.952586310191979;0
55014;BME280;40916;51.632;5.552;2022-09-01T01:14:33;1016.717072035268;;;14.913238655964957;0
55014;BME280;40916;51.632;5.552;2022-09-01T01:15:33;1016.7356471270623;;;14.913238655964957;0
55014;BME280;40916;51.632;5.552;2022-09-01T01:16:33;1016.698496946512;;;14.913238655964957;0
55014;BME280;40916;51.632;5.552;2022-09-01T01:17:33;1016.757937241227;;;14.913238655964957;0
55014;BME280;40916;51.632;5.552;2022-09-01T01:18:33;1016.678491219534;;;14.886999812300196;0
55014;BME280;40916;51.632;5.552;2022-09-01T01:19:36;1016.6851964779789;;;14.87387826570853;0
55014;BME280;40916;51.632;5.552;2022-09-01T01:20:34;1016.6614431811373;;;14.84763091882461;0
55014;BME280;40916;51.632;5.552;2022-09-01T01:21:34;1016.7394474698244;;;14.84763091882461;0
55014;BME280;40916;51.632;5.552;2022-09-01T01:22:35;1016.7951648516951;;;14.84763091882461;0
55014;BME280;40916;51.632;5.552;2022-09-01T01:23:35;1016.7840213731337;;;14.84763091882461;0
55014;BME280;40916;51.632;5.552;2022-09-01T01:24:34;1016.6970973086546;;;14.821377894756203;0
55014;BME280;40916;51.632;5.552;2022-09-01T01:25:35;1016.7297706486646;;;14.80824925168146;0
55014;BME280;40916;51.632;5.552;2022-09-01T01:26:34;1016.666250803962;;;14.80168439701669;0
55014;BME280;40916;51.632;5.552;2022-09-01T01:27:34;1016.7360548624936;;;14.78855362090723;0
55014;BME280;40916;51.632;5.552;2022-09-01T01:28:35;1016.6692025930356;;;14.78855362090723;0
55014;BME280;40916;51.632;5.552;2022-09-01T01:29:34;1016.6832899959727;;;14.775421421723902;0
55014;BME280;40916;51.632;5.552;2022-09-01T01:30:35;1016.6428214907423;;;14.781987699252369;0
55014;BME280;40916;51.632;5.552;2022-09-01T01:31:34;1016.6680480328778;;;14.76885478821664;0
55014;BME280;40916;51.632;5.552;2022-09-01T01:32:34;1016.7133867568208;;;14.781987699252369;0
55014;BME280;40916;51.632;5.552;2022-09-01T01:33:35;1016.616054068545;;;14.76885478821664;0
55014;BME280;40916;51.632;5.552;2022-09-01T01:34:35;1016.6535787299046;;;14.775421421723902;0
55014;BME280;40916;51.632;5.552;2022-09-01T01:35:35;1016.6680480328778;;;14.76885478821664;0
55014;BME280;40916;51.632;5.552;2022-09-01T01:36:36;1016.7118359525024;;;14.755720452844752;0
55014;BME280;40916;51.632;5.552;2022-09-01T01:37:35;1016.7106573441437;;;14.736016277313805;0
55014;BME280;40916;51.632;5.552;2022-09-01T01:38:35;1016.6590606640669;;;14.742584692294361;0
55014;BME280;40916;51.632;5.552;2022-09-01T01:39:35;1016.6656990487752;;;14.729447505722444;0
55014;BME280;40916;51.632;5.552;2022-09-01T01:40:35;1016.7028344399621;;;14.729447505722444;0
55014;BME280;40916;51.632;5.552;2022-09-01T01:41:36;1016.72140214011;;;14.729447505722444;0
55014;BME280;40916;51.632;5.552;2022-09-01T01:42:35;1016.8212688858931;;;14.722878377414787;0
55014;BME280;40916;51.632;5.552;2022-09-01T01:43:35;1016.7235167536136;;;14.703168851138646;0
55014;BME280;40916;51.632;5.552;2022-09-01T01:44:36;1016.7408678811552;;;14.683456110614571;0
55014;BME280;40916;51.632;5.552;2022-09-01T01:45:36;1016.7338480863666;;;14.690027381437403;0
55014;BME280;40916;51.632;5.552;2022-09-01T01:46:38;1016.7408678811552;;;14.683456110614571;0
55014;BME280;40916;51.632;5.552;2022-09-01T01:47:36;1016.7367466295768;;;14.676884482335918;0
55014;BME280;40916;51.632;5.552;2022-09-01T01:48:37;1016.7627384600338;;;14.676884482335918;0
55014;BME280;40916;51.632;5.552;2022-09-01T01:49:36;1016.6843541654122;;;14.670312496495622;0
55014;BME280;40916;51.632;5.552;2022-09-01T01:50:36;1016.7074493454204;;;14.683456110614571;0
55014;BME280;40916;51.632;5.552;2022-09-01T01:51:36;1016.725607275488;;;14.676884482335918;0
55014;BME280;40916;51.632;5.552;2022-09-01T01:52:36;1016.7210739775471;;;14.663740152987835;0
55014;BME280;40916;51.632;5.552;2022-09-01T01:53:36;1016.7540783031601;;;14.657167451706652;0
55014;BME280;40916;51.632;5.552;2022-09-01T01:54:36;1016.7689301451372;;;14.657167451706652;0
55014;BME280;40916;51.632;5.552;2022-09-01T01:55:38;1016.7045646388983;;;14.637447200163145;0
55014;BME280;40916;51.632;5.552;2022-09-01T01:56:37;1016.7037270996008;;;14.624298574990501;0
55014;BME280;40916;51.632;5.552;2022-09-01T01:57:37;1016.705746704173;;;14.597997022879483;0
55014;BME280;40916;51.632;5.552;2022-09-01T01:58:37;1016.7734228330118;;;14.611148516179178;0
55014;BME280;40916;51.632;5.552;2022-09-01T01:59:37;1016.7193106001295;;;14.578267091403873;0
55014;BME280;40916;51.632;5.552;2022-09-01T02:00:37;1016.8038268847667;;;14.56511200816141;0
55014;BME280;40916;51.632;5.552;2022-09-01T02:01:37;1016.8191103358512;;;14.571689729412824;0
55014;BME280;40916;51.632;5.552;2022-09-01T02:02:37;1016.8112513285531;;;14.56511200816141;0
55014;BME280;40916;51.632;5.552;2022-09-01T02:03:37;1016.8136511027229;;;14.545376687779513;0
55014;BME280;40916;51.632;5.552;2022-09-01T02:04:37;1016.7658325698201;;;14.551955487451345;0
55014;BME280;40916;51.632;5.552;2022-09-01T02:05:37;1016.7426824684559;;;14.53879752842095;0
55014;BME280;40916;51.632;5.552;2022-09-01T02:06:37;1016.7826300381155;;;14.52563813021683;0
55014;BME280;40916;51.632;5.552;2022-09-01T02:07:37;1016.8164806606811;;;14.53221800926897;0
55014;BME280;40916;51.632;5.552;2022-09-01T02:08:38;1016.7302196427826;;;14.51905789115775;0
55014;BME280;40916;51.632;5.552;2022-09-01T02:09:38;1016.845287023762;;;14.51905789115775;0
55014;BME280;40916;51.632;5.552;2022-09-01T02:10:39;1016.7998508121166;;;14.50589633259144;0
55014;BME280;40916;51.632;5.552;2022-09-01T02:11:38;1016.776681034449;;;14.492733332714952;0
55014;BME280;40916;51.632;5.552;2022-09-01T02:12:38;1016.7864553439116;;;14.472986128571467;0
55014;BME280;40916;51.632;5.552;2022-09-01T02:13:38;1016.7368341487064;;;14.453235676663386;0
55014;BME280;40916;51.632;5.552;2022-09-01T02:14:38;1016.773947356631;;;14.453235676663386;0
55014;BME280;40916;51.632;5.552;2022-09-01T02:15:39;1016.7312728818235;;;14.426896683704346;0
55014;BME280;40916;51.632;5.552;2022-09-01T02:16:38;1016.7424062071806;;;14.426896683704346;0
55014;BME280;40916;51.632;5.552;2022-09-01T02:17:38;1016.7841578496215;;;14.440066902981759;0
55014;BME280;40916;51.632;5.552;2022-09-01T02:18:39;1016.779517299588;;;14.426896683704346;0
55014;BME280;40916;51.632;5.552;2022-09-01T02:19:38;1016.7897150067839;;;14.413725017971991;0
55014;BME280;40916;51.632;5.552;2022-09-01T02:20:39;1016.7785819944366;;;14.413725017971991;0
55014;BME280;40916;51.632;5.552;2022-09-01T02:21:39;1016.7674489831811;;;14.413725017971991;0
55014;BME280;40916;51.632;5.552;2022-09-01T02:22:39;1016.8750681377093;;;14.413725017971991;0
55014;BME280;40916;51.632;5.552;2022-09-01T02:23:39;1016.8365413718183;;;14.393964805389352;0
55014;BME280;40916;51.632;5.552;2022-09-01T02:24:39;1016.8021927685804;;;14.380789519756345;0
55014;BME280;40916;51.632;5.552;2022-09-01T02:25:40;1016.8504323982003;;;14.380789519756345;0
55014;BME280;40916;51.632;5.552;2022-09-01T02:26:41;1016.887539819546;;;14.380789519756345;0
55014;BME280;40916;51.632;5.552;2022-09-01T02:27:39;1016.8086570715269;;;14.367612784655968;0
55014;BME280;40916;51.632;5.552;2022-09-01T02:28:39;1016.8081762396135;;;14.361023873286097;0
55014;BME280;40916;51.632;5.552;2022-09-01T02:29:39;1016.8183415139816;;;14.347844962367773;0
55014;BME280;40916;51.632;5.552;2022-09-01T02:30:39;1016.7542927904638;;;14.334664599825224;0
55014;BME280;40916;51.632;5.552;2022-09-01T02:31:39;1016.7500949028085;;;14.328073873924911;0
55014;BME280;40916;51.632;5.552;2022-09-01T02:32:39;1016.6850581186941;;;14.301707336941575;0
55014;BME280;40916;51.632;5.552;2022-09-01T02:33:40;1016.7958654864327;;;14.2951147938094;0
55014;BME280;40916;51.632;5.552;2022-09-01T02:34:40;1016.7424309129344;;;14.275334981353485;0
55014;BME280;40916;51.632;5.552;2022-09-01T02:35:40;1016.8109019911878;;;14.248956800227138;0
55014;BME280;40916;51.632;5.552;2022-09-01T02:36:40;1016.7759878935235;;;14.229169337195746;0
55014;BME280;40916;51.632;5.552;2022-09-01T02:37:40;1016.666875968781;;;14.209378590459224;0
55014;BME280;40916;51.632;5.552;2022-09-01T02:38:40;1016.7034540539049;;;14.20278094466055;0
55014;BME280;40916;51.632;5.552;2022-09-01T02:39:40;1016.7723723458121;;;14.18298581508079;0
55014;BME280;40916;51.632;5.552;2022-09-01T02:40:40;1016.7040384631545;;;14.163187394936763;0
55014;BME280;40916;51.632;5.552;2022-09-01T02:41:40;1016.6907987646929;;;14.136784377664402;0
55014;BME280;40916;51.632;5.552;2022-09-01T02:42:40;1016.677536230258;;;14.110375498271594;0
55014;BME280;40916;51.632;5.552;2022-09-01T02:43:41;1016.643082976352;;;14.0971688580921;0
55014;BME280;40916;51.632;5.552;2022-09-01T02:44:41;1016.7765874390607;;;14.0971688580921;0
55014;BME280;40916;51.632;5.552;2022-09-01T02:45:41;1016.7150773516408;;;14.070751172384998;0
55014;BME280;40916;51.632;5.552;2022-09-01T02:46:42;1016.8057124209242;;;14.09056498749828;0
55014;BME280;40916;51.632;5.552;2022-09-01T02:47:42;1016.7224938421974;;;14.070751172384998;0
55014;BME280;40916;51.632;5.552;2022-09-01T02:48:42;1016.6928278828777;;;14.070751172384998;0
55014;BME280;40916;51.632;5.552;2022-09-01T02:49:41;1016.7230399007294;;;14.077356144754408;0
55014;BME280;40916;51.632;5.552;2022-09-01T02:50:41;1016.7113691065442;;;14.070751172384998;0
55014;BME280;40916;51.632;5.552;2022-09-01T02:51:42;1016.7050426928963;;;14.083960749755597;0
55014;BME280;40916;51.632;5.552;2022-09-01T02:52:42;1016.7283774760864;;;14.0971688580921;0
55014;BME280;40916;51.632;5.552;2022-09-01T02:53:42;1016.6303324760974;;;14.077356144754408;0
55014;BME280;40916;51.632;5.552;2022-09-01T02:54:42;1016.6647930288815;;;14.09056498749828;0
55014;BME280;40916;51.632;5.552;2022-09-01T02:55:42;1016.7140835070797;;;14.103772361646683;0
55014;BME280;40916;51.632;5.552;2022-09-01T02:56:42;1016.6605424897292;;;14.083960749755597;0
55014;BME280;40916;51.632;5.552;2022-09-01T02:57:42;1016.5211578543386;;;14.05754012510252;0
55014;BME280;40916;51.632;5.552;2022-09-01T02:58:43;1016.664250839327;;;14.083960749755597;0
55014;BME280;40916;51.632;5.552;2022-09-01T02:59:42;1016.6531257908969;;;14.083960749755597;0
55014;BME280;40916;51.632;5.552;2022-09-01T03:00:42;1016.7315442980484;;;14.09056498749828;0
55014;BME280;40916;51.632;5.552;2022-09-01T03:01:42;1016.590083870382;;;14.083960749755597;0
55014;BME280;40916;51.632;5.552;2022-09-01T03:02:43;1016.5233336397517;;;14.083960749755597;0
55014;BME280;40916;51.632;5.552;2022-09-01T03:03:43;1016.5726223509846;;;14.0971688580921;0
55014;BME280;40916;51.632;5.552;2022-09-01T03:04:43;1016.568913898229;;;14.0971688580921;0
55014;BME280;40916;51.632;5.552;2022-09-01T03:05:43;1016.5455837122685;;;14.083960749755597;0
55014;BME280;40916;51.632;5.552;2022-09-01T03:06:43;1016.6134153392892;;;14.0971688580921;0
55014;BME280;40916;51.632;5.552;2022-09-01T03:07:43;1016.5270419848684;;;14.083960749755597;0
55014;BME280;40916;51.632;5.552;2022-09-01T03:08:43;1016.5932495274385;;;14.077356144754408;0
55014;BME280;40916;51.632;5.552;2022-09-01T03:09:43;1016.6112465347132;;;14.070751172384998;0
55014;BME280;40916;51.632;5.552;2022-09-01T03:10:43;1016.5672914705832;;;14.077356144754408;0
55014;BME280;40916;51.632;5.552;2022-09-01T03:11:44;1016.6054586003429;;;14.09056498749828;0
55014;BME280;40916;51.632;5.552;2022-09-01T03:12:44;1016.5535410008059;;;14.09056498749828;0
55014;BME280;40916;51.632;5.552;2022-09-01T03:13:44;1016.5095786706129;;;14.0971688580921;0
55014;BME280;40916;51.632;5.552;2022-09-01T03:14:44;1016.5996564469416;;;14.110375498271594;0
55014;BME280;40916;51.632;5.552;2022-09-01T03:15:44;1016.5699879721097;;;14.110375498271594;0
55014;BME280;40916;51.632;5.552;2022-09-01T03:16:44;1016.6198011183247;;;14.130182707663344;0
55014;BME280;40916;51.632;5.552;2022-09-01T03:17:44;1016.5413866970165;;;14.123580671170465;0
55014;BME280;40916;51.632;5.552;2022-09-01T03:18:44;1016.5986085427421;;;14.143385681282986;0
55014;BME280;40916;51.632;5.552;2022-09-01T03:19:44;1016.5954272748409;;;14.1499866186284;0
55014;BME280;40916;51.632;5.552;2022-09-01T03:20:45;1016.5970009103622;;;14.169787234118104;0
55014;BME280;40916;51.632;5.552;2022-09-01T03:21:45;1016.6049406255042;;;14.176386707463084;0
55014;BME280;40916;51.632;5.552;2022-09-01T03:22:45;1016.5530133697197;;;14.176386707463084;0
55014;BME280;40916;51.632;5.552;2022-09-01T03:23:45;1016.5741420632103;;;14.209378590459224;0
55014;BME280;40916;51.632;5.552;2022-09-01T03:24:45;1016.4633720237215;;;14.215975871075432;0
55014;BME280;40916;51.632;5.552;2022-09-01T03:25:46;1016.5820730174397;;;14.215975871075432;0
55014;BME280;40916;51.632;5.552;2022-09-01T03:26:46;1016.5942215408593;;;14.229169337195746;0
55014;BME280;40916;51.632;5.552;2022-09-01T03:27:45;1016.5534168894368;;;14.229169337195746;0
55014;BME280;40916;51.632;5.552;2022-09-01T03:28:46;1016.5729781097884;;;14.242361343891627;0
55014;BME280;40916;51.632;5.552;2022-09-01T03:29:45;1016.6036635671006;;;14.255551892032525;0
55014;BME280;40916;51.632;5.552;2022-09-01T03:30:47;1016.5766877296192;;;14.242361343891627;0
55014;BME280;40916;51.632;5.552;2022-09-01T03:31:46;1016.5321722996483;;;14.242361343891627;0
55014;BME280;40916;51.632;5.552;2022-09-01T03:32:46;1016.5205381116238;;;14.235765522917383;0
55014;BME280;40916;51.632;5.552;2022-09-01T03:33:46;1016.5131189817815;;;14.235765522917383;0
55014;BME280;40916;51.632;5.552;2022-09-01T03:34:46;1016.5385788380098;;;14.229169337195746;0
55014;BME280;40916;51.632;5.552;2022-09-01T03:35:46;1016.4957331132617;;;14.20278094466055;0
55014;BME280;40916;51.632;5.552;2022-09-01T03:36:46;1016.5095403198334;;;14.189584557080273;0
55014;BME280;40916;51.632;5.552;2022-09-01T03:37:46;1016.4777904389612;;;14.163187394936763;0
55014;BME280;40916;51.632;5.552;2022-09-01T03:38:47;1016.4841609877319;;;14.1499866186284;0
55014;BME280;40916;51.632;5.552;2022-09-01T03:39:47;1016.5164864705725;;;14.136784377664402;0
55014;BME280;40916;51.632;5.552;2022-09-01T03:40:47;1016.5461566293974;;;14.136784377664402;0
55014;BME280;40916;51.632;5.552;2022-09-01T03:41:47;1016.5710560134045;;;14.123580671170465;0
55014;BME280;40916;51.632;5.552;2022-09-01T03:42:47;1016.5705227466668;;;14.116978268076359;0
55014;BME280;40916;51.632;5.552;2022-09-01T03:43:47;1016.5408538549219;;;14.116978268076359;0
55014;BME280;40916;51.632;5.552;2022-09-01T03:44:47;1016.5244124746101;;;14.0971688580921;0
55014;BME280;40916;51.632;5.552;2022-09-01T03:45:48;1016.5207040234292;;;14.0971688580921;0
55014;BME280;40916;51.632;5.552;2022-09-01T03:46:47;1016.6134153392892;;;14.0971688580921;0
55014;BME280;40916;51.632;5.552;2022-09-01T03:47:48;1016.5424158039935;;;14.09056498749828;0
55014;BME280;40916;51.632;5.552;2022-09-01T03:48:48;1016.6345840459355;;;14.083960749755597;0
55014;BME280;40916;51.632;5.552;2022-09-01T03:49:48;1016.6027368019958;;;14.05754012510252;0
55014;BME280;40916;51.632;5.552;2022-09-01T03:50:48;1016.5651070952229;;;14.050934049969825;0
55014;BME280;40916;51.632;5.552;2022-09-01T03:51:48;1016.570868791905;;;14.031113617287279;0
55014;BME280;40916;51.632;5.552;2022-09-01T03:52:49;1016.630749407825;;;14.037720796172145;0
55014;BME280;40916;51.632;5.552;2022-09-01T03:53:48;1016.5628985423327;;;14.024506070265062;0
55014;BME280;40916;51.632;5.552;2022-09-01T03:54:48;1016.5894084029175;;;14.031113617287279;0
55014;BME280;40916;51.632;5.552;2022-09-01T03:55:48;1016.5999772337741;;;14.024506070265062;0
55014;BME280;40916;51.632;5.552;2022-09-01T03:56:49;1016.4844785268456;;;14.017898154995446;0
55014;BME280;40916;51.632;5.552;2022-09-01T03:57:49;1016.4599985852773;;;13.991462809240431;0
55014;BME280;40916;51.632;5.552;2022-09-01T03:58:49;1016.5458351677131;;;13.998072198601037;0
55014;BME280;40916;51.632;5.552;2022-09-01T03:59:49;1016.5310045464756;;;13.998072198601037;0
55014;BME280;40916;51.632;5.552;2022-09-01T04:00:50;1016.5119049920239;;;13.991462809240431;0
55014;BME280;40916;51.632;5.552;2022-09-01T04:01:49;1016.5039271012299;;;13.984853051081515;0
55014;BME280;40916;51.632;5.552;2022-09-01T04:02:51;1016.5621162633777;;;13.971632427927432;0
55014;BME280;40916;51.632;5.552;2022-09-01T04:03:49;1016.4480454113866;;;13.938574408344273;0
55014;BME280;40916;51.632;5.552;2022-09-01T04:04:49;1016.4845425600355;;;13.931961695823802;0
55014;BME280;40916;51.632;5.552;2022-09-01T04:05:50;1016.5241659922351;;;13.918735161293938;0
55014;BME280;40916;51.632;5.552;2022-09-01T04:06:50;1016.5272932199587;;;13.91212133906308;0
55014;BME280;40916;51.632;5.552;2022-09-01T04:07:50;1016.4502375518176;;;13.879046673816191;0
55014;BME280;40916;51.632;5.552;2022-09-01T04:08:50;1016.4830095027629;;;13.872430629171763;0
55014;BME280;40916;51.632;5.552;2022-09-01T04:09:50;1016.4744152326431;;;13.859197427399593;0
55014;BME280;40916;51.632;5.552;2022-09-01T04:10:51;1016.5263067660127;;;13.859197427399593;0
55014;BME280;40916;51.632;5.552;2022-09-01T04:11:50;1016.4466877125216;;;13.839344841865739;0
55014;BME280;40916;51.632;5.552;2022-09-01T04:12:50;1016.4695217367454;;;13.845962741575384;0
55014;BME280;40916;51.632;5.552;2022-09-01T04:13:50;1016.4609160444705;;;13.83272657080936;0
55014;BME280;40916;51.632;5.552;2022-09-01T04:14:50;1016.4634233434632;;;13.819488914211043;0